This is the latest recevied weather packets stored in our database for station/object K1FSY-9. If no packets are shown the sender has not sent any weather packets the latest 10 day(s).
| Time | Temp. | Humidity | Pressure | Rain* | Wind** | Luminosity | Snow |
|---|---|---|---|---|---|---|---|
| 1777522188 | 9.44° C | 83% | 1007.7 hPa | 0 mm | - | - | - |
| 1777520384 | 10° C | 81% | 1008.4 hPa | 0 mm | - | - | - |
| 1777518581 | 10.56° C | 79% | 1008.1 hPa | 0 mm | - | - | - |
| 1777516778 | 11.11° C | 73% | 1008.4 hPa | 0 mm | - | - | - |
| 1777513172 | 11.11° C | 73% | 1008.4 hPa | 0 mm | - | - | - |
| 1777504159 | 14.44° C | 61% | 1007.7 hPa | 0 mm | - | - | - |
| 1777500557 | 15.56° C | 57% | 1007.7 hPa | 0 mm | - | - | - |
| 1777498755 | 16.11° C | 54% | 1008.4 hPa | 0 mm | - | - | - |
| 1777496952 | 16.67° C | 51% | 1008.1 hPa | 0 mm | - | - | - |
| 1777495150 | 17.22° C | 51% | 1008.8 hPa | 0 mm | - | - | - |
| 1777493347 | 18.33° C | 50% | 1008.4 hPa | 0 mm | - | - | - |
| 1777491545 | 18.89° C | 51% | 1008.8 hPa | 0 mm | - | - | - |
| 1777489740 | 18.89° C | 50% | 1008.8 hPa | 0 mm | - | - | - |
| 1777487937 | 19.44° C | 50% | 1009.1 hPa | 0 mm | - | - | - |
| 1777486135 | 20.56° C | 46% | 1008.8 hPa | 0 mm | - | - | - |
| 1777484335 | 20° C | 48% | 1009.1 hPa | 0 mm | - | - | - |
| 1777480729 | 18.33° C | 52% | 1010.4 hPa | 0 mm | - | - | - |
| 1777478924 | 18.33° C | 51% | 1010.8 hPa | 0 mm | - | - | - |
| 1777477117 | 17.78° C | 52% | 1011.1 hPa | 0 mm | - | - | - |
| 1777475315 | 17.22° C | 53% | 1011.5 hPa | 0 mm | - | - | - |
| 1777473511 | 16.11° C | 56% | 1011.8 hPa | 0 mm | - | - | - |
| 1777471708 | 14.44° C | 58% | 1012.5 hPa | 0 mm | - | - | - |
| 1777468102 | 14.44° C | 55% | 1013.5 hPa | 0 mm | - | - | - |
| 1777466301 | 14.44° C | 61% | 1013.2 hPa | 0 mm | - | - | - |
| 1777464496 | 9.44° C | 70% | 1014.5 hPa | 0 mm | - | - | - |
* Rain latest 24 hours (hover to see other rain measurements)
** Current wind speed in m/s (hover to see current wind gust speed)